createdAt,value
2023-04-13T00:01:52.985Z,19.30
2023-04-13T00:04:28.425Z,19.40
2023-04-13T00:07:04.401Z,19.50
2023-04-13T00:09:39.625Z,19.40
2023-04-13T00:12:14.257Z,19.40
2023-04-13T00:14:52.343Z,19.40
2023-04-13T00:17:26.603Z,19.50
2023-04-13T00:20:01.850Z,19.50
2023-04-13T00:22:37.518Z,19.60
2023-04-13T00:25:12.320Z,19.70
2023-04-13T00:27:47.284Z,19.80
2023-04-13T00:30:22.997Z,20.10
2023-04-13T00:32:57.040Z,20.50
2023-04-13T00:35:31.538Z,21.00
2023-04-13T00:38:07.376Z,21.20
2023-04-13T00:40:42.665Z,21.30
2023-04-13T00:43:17.348Z,21.30
2023-04-13T00:45:52.260Z,21.40
2023-04-13T00:48:26.892Z,21.30
2023-04-13T00:51:01.895Z,21.20
2023-04-13T00:53:38.026Z,21.20
2023-04-13T00:56:14.023Z,21.20
2023-04-13T00:58:49.820Z,21.20
2023-04-13T01:01:25.394Z,21.40
2023-04-13T01:04:00.083Z,21.60
2023-04-13T01:06:38.132Z,21.90
2023-04-13T01:09:15.884Z,21.90
2023-04-13T01:11:52.212Z,21.80
2023-04-13T01:14:30.288Z,21.80
2023-04-13T01:17:07.589Z,21.70
2023-04-13T01:19:46.950Z,21.80
2023-04-13T01:22:24.170Z,21.60
2023-04-13T01:25:07.529Z,21.80
2023-04-13T01:27:49.706Z,22.00
2023-04-13T01:30:28.834Z,22.20
2023-04-13T01:33:04.770Z,22.20
2023-04-13T01:35:40.565Z,22.40
2023-04-13T01:38:18.665Z,22.50
2023-04-13T01:40:53.492Z,22.40
2023-04-13T01:43:32.569Z,22.30
2023-04-13T01:46:15.527Z,22.20
2023-04-13T01:49:02.289Z,22.30
2023-04-13T01:51:47.092Z,22.40
2023-04-13T01:54:28.018Z,22.30
2023-04-13T01:57:03.752Z,22.40
2023-04-13T01:59:42.225Z,22.60
2023-04-13T02:02:20.068Z,22.70
2023-04-13T02:04:55.176Z,22.90
2023-04-13T02:07:29.314Z,23.00
2023-04-13T02:10:03.630Z,23.30
2023-04-13T02:12:37.931Z,23.40
2023-04-13T02:15:16.215Z,23.50
2023-04-13T02:17:50.781Z,23.80
2023-04-13T02:20:26.871Z,23.60
2023-04-13T02:23:02.301Z,23.30
2023-04-13T02:25:37.504Z,23.10
2023-04-13T02:28:11.342Z,22.90
2023-04-13T02:30:47.261Z,22.90
2023-04-13T02:33:23.105Z,23.20
2023-04-13T02:35:58.839Z,23.40
2023-04-13T02:38:34.080Z,23.50
2023-04-13T02:41:14.938Z,23.60
2023-04-13T02:43:49.150Z,23.60
2023-04-13T02:46:28.416Z,23.70
2023-04-13T02:49:12.336Z,23.60
2023-04-13T02:51:56.807Z,23.60
2023-04-13T02:54:44.925Z,23.50
2023-04-13T02:57:23.146Z,23.40
2023-04-13T02:59:58.683Z,23.60
2023-04-13T03:02:44.931Z,23.70
2023-04-13T03:05:21.580Z,23.80
2023-04-13T03:07:58.803Z,23.80
2023-04-13T03:10:34.392Z,23.70
2023-04-13T03:13:08.119Z,23.70
2023-04-13T03:15:43.003Z,23.50
2023-04-13T03:18:21.491Z,23.50
2023-04-13T03:20:56.469Z,23.60
2023-04-13T03:23:36.354Z,23.70
2023-04-13T03:26:12.734Z,23.70
2023-04-13T03:28:48.872Z,23.70
2023-04-13T03:31:23.924Z,23.80
2023-04-13T03:34:01.748Z,24.10
2023-04-13T03:36:35.722Z,24.10
2023-04-13T03:39:10.078Z,24.00
2023-04-13T03:41:44.897Z,23.80
2023-04-13T03:44:20.692Z,23.60
2023-04-13T03:46:55.048Z,23.80
2023-04-13T03:49:37.425Z,23.80
2023-04-13T03:52:11.261Z,24.10
2023-04-13T03:54:48.948Z,24.20
2023-04-13T03:57:22.733Z,24.20
2023-04-13T03:59:58.238Z,24.00
2023-04-13T04:02:47.277Z,24.00
2023-04-13T04:05:33.665Z,23.90
2023-04-13T04:08:10.776Z,24.00
2023-04-13T04:10:45.768Z,24.00
2023-04-13T04:13:20.538Z,24.30
2023-04-13T04:15:58.284Z,24.30
2023-04-13T04:18:35.399Z,24.20
2023-04-13T04:21:15.888Z,24.40
2023-04-13T04:23:49.927Z,24.40
2023-04-13T04:26:27.317Z,24.20
2023-04-13T04:29:05.654Z,24.10
2023-04-13T04:31:45.752Z,24.10
2023-04-13T04:34:23.726Z,24.00
2023-04-13T04:37:03.129Z,23.90
2023-04-13T04:39:45.791Z,23.90
2023-04-13T04:42:23.379Z,23.90
2023-04-13T04:44:58.190Z,24.00
2023-04-13T04:47:34.054Z,24.10
2023-04-13T04:50:19.375Z,24.20
2023-04-13T04:53:01.908Z,24.00
2023-04-13T04:55:35.998Z,23.90
2023-04-13T04:58:11.328Z,23.70
2023-04-13T05:00:51.407Z,23.70
2023-04-13T05:03:26.764Z,23.70
2023-04-13T05:06:11.720Z,23.60
2023-04-13T05:08:48.566Z,23.60
2023-04-13T05:11:22.919Z,23.60
2023-04-13T05:14:00.165Z,23.50
2023-04-13T05:16:35.753Z,23.60
2023-04-13T05:19:17.647Z,23.60
2023-04-13T05:21:56.495Z,23.50
2023-04-13T05:26:46.297Z,23.40
2023-04-13T05:29:27.885Z,23.30
2023-04-13T05:32:05.076Z,23.20
2023-04-13T05:34:41.797Z,23.00
2023-04-13T05:37:23.848Z,22.80
2023-04-13T05:40:00.302Z,22.80
2023-04-13T05:42:43.342Z,22.80
2023-04-13T05:45:26.403Z,22.70
2023-04-13T05:48:22.686Z,22.70
2023-04-13T05:51:03.203Z,22.80
2023-04-13T05:53:41.311Z,22.80
2023-04-13T05:56:16.326Z,22.60
2023-04-13T05:58:54.486Z,22.70
2023-04-13T06:01:33.880Z,22.70
2023-04-13T06:04:11.159Z,22.80
2023-04-13T06:06:46.839Z,22.80
2023-04-13T06:09:24.513Z,22.80
2023-04-13T06:12:01.270Z,22.80
2023-04-13T06:14:38.782Z,22.70
2023-04-13T06:17:13.891Z,22.60
2023-04-13T06:19:50.447Z,22.50
2023-04-13T06:22:25.932Z,22.50
2023-04-13T06:25:01.950Z,22.40
2023-04-13T06:27:42.046Z,22.40
2023-04-13T06:30:20.643Z,22.30
2023-04-13T06:33:00.568Z,22.40
2023-04-13T06:35:37.895Z,22.40
2023-04-13T06:38:13.486Z,22.40
2023-04-13T06:41:07.264Z,22.40
2023-04-13T06:43:46.232Z,22.40
2023-04-13T06:46:38.724Z,22.40
2023-04-13T06:49:20.322Z,22.40
2023-04-13T06:51:59.737Z,22.20
2023-04-13T06:54:34.738Z,22.20
2023-04-13T06:57:16.488Z,22.10
2023-04-13T06:59:51.558Z,22.10
2023-04-13T07:02:30.674Z,22.00
2023-04-13T07:05:08.764Z,21.70
2023-04-13T07:07:44.654Z,21.70
2023-04-13T07:10:21.494Z,21.60
2023-04-13T07:12:58.407Z,21.60
2023-04-13T07:15:36.408Z,21.50
2023-04-13T07:18:14.120Z,21.40
2023-04-13T07:20:49.379Z,21.50
2023-04-13T07:23:28.356Z,21.50
2023-04-13T07:26:04.577Z,21.40
2023-04-13T07:28:40.207Z,21.40
2023-04-13T07:31:15.702Z,21.40
2023-04-13T07:33:57.590Z,21.20
2023-04-13T07:36:43.613Z,21.20
2023-04-13T07:39:23.244Z,21.30
2023-04-13T07:42:01.075Z,21.30
2023-04-13T07:45:03.613Z,21.30
2023-04-13T07:47:39.455Z,21.30
2023-04-13T07:50:19.686Z,21.30
2023-04-13T07:52:55.512Z,21.30
2023-04-13T07:55:32.799Z,21.30
2023-04-13T07:58:08.442Z,21.30
2023-04-13T08:00:44.109Z,21.30
2023-04-13T08:03:20.605Z,21.30
2023-04-13T08:06:00.932Z,21.20
2023-04-13T08:08:37.202Z,21.20
2023-04-13T08:11:13.469Z,21.10
2023-04-13T08:13:50.085Z,21.10
2023-04-13T08:16:26.870Z,21.20
2023-04-13T08:19:05.029Z,21.20
2023-04-13T08:21:46.389Z,21.20
2023-04-13T08:24:22.298Z,21.20
2023-04-13T08:27:00.361Z,21.10
2023-04-13T08:29:35.805Z,21.10
2023-04-13T08:32:11.830Z,21.10
2023-04-13T08:34:47.206Z,21.20
2023-04-13T08:37:28.253Z,21.10
2023-04-13T08:40:03.816Z,21.10
2023-04-13T08:42:41.311Z,21.10
2023-04-13T08:45:18.742Z,21.10
2023-04-13T08:47:56.876Z,21.00
2023-04-13T08:50:33.375Z,21.00
2023-04-13T08:53:11.862Z,20.90
2023-04-13T08:55:50.144Z,21.00
2023-04-13T08:58:29.537Z,21.00
2023-04-13T09:01:06.390Z,21.10
2023-04-13T09:03:51.462Z,21.00
2023-04-13T09:06:34.699Z,21.00
2023-04-13T09:09:17.410Z,21.00
2023-04-13T09:11:53.027Z,21.10
2023-04-13T09:14:29.440Z,21.00
2023-04-13T09:17:07.057Z,21.00
2023-04-13T09:19:47.169Z,21.00
2023-04-13T09:22:23.268Z,21.00
2023-04-13T09:25:01.036Z,21.00
2023-04-13T09:27:36.708Z,21.00
2023-04-13T09:30:14.058Z,21.00
2023-04-13T09:32:49.076Z,21.00
2023-04-13T09:35:24.235Z,21.00
2023-04-13T09:38:00.456Z,20.90
2023-04-13T09:40:40.767Z,21.10
2023-04-13T09:43:16.200Z,21.10
2023-04-13T09:45:52.403Z,21.10
2023-04-13T09:48:28.096Z,21.10
2023-04-13T09:51:07.041Z,21.10
2023-04-13T09:53:49.878Z,21.10
2023-04-13T09:56:28.896Z,21.10
2023-04-13T09:59:05.171Z,21.00
2023-04-13T10:01:43.030Z,21.00
2023-04-13T10:04:18.835Z,21.00
2023-04-13T10:06:55.151Z,21.10
2023-04-13T10:09:30.642Z,21.00
2023-04-13T10:12:09.498Z,21.10
2023-04-13T10:14:45.919Z,21.10
2023-04-13T10:17:48.789Z,21.10
2023-04-13T10:20:24.919Z,21.00
2023-04-13T10:23:03.629Z,21.00
2023-04-13T10:25:40.027Z,21.10
2023-04-13T10:28:17.632Z,20.90
2023-04-13T10:30:56.546Z,20.90
2023-04-13T10:33:33.333Z,20.90
2023-04-13T10:36:08.868Z,20.90
2023-04-13T10:38:49.313Z,20.90
2023-04-13T10:41:30.907Z,20.90
2023-04-13T10:44:12.685Z,20.80
2023-04-13T10:46:56.340Z,20.90
2023-04-13T10:49:40.238Z,20.80
2023-04-13T10:52:15.910Z,20.90
2023-04-13T10:54:52.186Z,20.80
2023-04-13T10:57:27.424Z,20.70
2023-04-13T11:00:06.029Z,20.70
2023-04-13T11:02:45.775Z,20.60
2023-04-13T11:05:23.982Z,20.40
2023-04-13T11:07:59.808Z,20.40
2023-04-13T11:10:35.468Z,20.40
2023-04-13T11:13:12.119Z,20.30
2023-04-13T11:15:49.894Z,20.50
2023-04-13T11:18:32.163Z,20.50
2023-04-13T11:21:08.822Z,20.40
2023-04-13T11:23:45.242Z,20.50
2023-04-13T11:26:22.047Z,20.40
2023-04-13T11:29:00.723Z,20.40
2023-04-13T11:31:45.776Z,20.50
2023-04-13T11:34:32.714Z,20.40
2023-04-13T11:37:09.577Z,20.60
2023-04-13T11:39:45.543Z,20.50
2023-04-13T11:42:20.748Z,20.60
2023-04-13T11:44:57.923Z,20.60
2023-04-13T11:47:37.044Z,20.50
2023-04-13T11:50:15.609Z,20.50
2023-04-13T11:52:54.046Z,20.60
2023-04-13T11:55:32.830Z,20.40
2023-04-13T11:58:14.139Z,20.40
2023-04-13T12:00:49.444Z,20.40
2023-04-13T12:03:38.529Z,20.50
2023-04-13T12:06:23.051Z,20.40
2023-04-13T12:09:09.958Z,20.40
2023-04-13T12:12:02.126Z,20.40
2023-04-13T12:17:38.042Z,20.40
2023-04-13T12:20:23.240Z,20.40
2023-04-13T12:25:36.180Z,20.30
2023-04-13T12:28:11.839Z,20.30
2023-04-13T12:30:50.026Z,20.30
2023-04-13T12:33:25.792Z,20.40
2023-04-13T12:36:03.403Z,20.30
2023-04-13T12:38:39.319Z,20.20
2023-04-13T12:41:14.822Z,20.20
2023-04-13T12:43:50.552Z,20.20
2023-04-13T12:46:28.087Z,20.20
2023-04-13T12:49:03.441Z,20.20
2023-04-13T12:51:40.848Z,20.20
2023-04-13T12:54:19.619Z,20.20
2023-04-13T12:56:58.673Z,20.30
2023-04-13T12:59:33.615Z,20.20
2023-04-13T13:02:08.604Z,20.20
2023-04-13T13:04:44.100Z,20.30
2023-04-13T13:07:21.331Z,20.20
2023-04-13T13:09:57.549Z,20.20
2023-04-13T13:12:34.128Z,20.20
2023-04-13T13:15:12.218Z,20.30
2023-04-13T13:17:48.036Z,20.30
2023-04-13T13:20:23.187Z,20.30
2023-04-13T13:23:00.323Z,20.20
2023-04-13T13:25:39.706Z,20.20
2023-04-13T13:28:17.229Z,20.10
2023-04-13T13:30:53.529Z,20.10
2023-04-13T13:33:29.441Z,20.20
2023-04-13T13:36:05.598Z,20.10
2023-04-13T13:38:43.188Z,20.00
2023-04-13T13:41:19.208Z,20.00
2023-04-13T13:43:54.480Z,20.10
2023-04-13T13:46:30.965Z,20.10
2023-04-13T13:49:09.097Z,20.10
2023-04-13T13:52:07.968Z,20.00
2023-04-13T13:54:53.634Z,20.00
2023-04-13T13:57:29.202Z,20.00
2023-04-13T14:00:14.796Z,20.00
2023-04-13T14:02:51.107Z,20.00
2023-04-13T14:05:26.806Z,20.00
2023-04-13T14:08:02.617Z,20.10
2023-04-13T14:10:40.797Z,20.00
2023-04-13T14:13:15.882Z,20.10
2023-04-13T14:15:51.440Z,20.00
2023-04-13T14:18:27.389Z,20.10
2023-04-13T14:21:03.491Z,20.00
2023-04-13T14:23:39.055Z,20.10
2023-04-13T14:26:16.790Z,20.10
2023-04-13T14:28:52.925Z,20.10
2023-04-13T14:31:28.587Z,20.20
2023-04-13T14:34:03.816Z,20.20
2023-04-13T14:36:39.000Z,20.30
2023-04-13T14:39:14.457Z,20.20
2023-04-13T14:41:52.985Z,20.20
2023-04-13T14:44:28.997Z,20.30
2023-04-13T14:47:08.930Z,20.20
2023-04-13T14:49:47.524Z,20.20
2023-04-13T14:52:22.799Z,20.20
2023-04-13T14:55:01.681Z,20.20
2023-04-13T14:57:39.594Z,20.20
2023-04-13T15:00:23.327Z,20.20
2023-04-13T15:02:59.178Z,20.10
2023-04-13T15:05:40.145Z,20.10
2023-04-13T15:08:15.949Z,20.10
2023-04-13T15:10:51.891Z,20.10
2023-04-13T15:13:29.940Z,20.10
2023-04-13T15:16:05.062Z,20.10
2023-04-13T15:18:40.688Z,20.10
2023-04-13T15:21:16.509Z,20.10
2023-04-13T15:23:52.339Z,20.10
2023-04-13T15:26:28.037Z,20.20
2023-04-13T15:29:05.902Z,20.10
2023-04-13T15:31:42.651Z,20.20
2023-04-13T15:34:18.192Z,20.10
2023-04-13T15:36:53.445Z,20.00
2023-04-13T15:39:29.847Z,20.10
2023-04-13T15:42:05.604Z,20.10
2023-04-13T15:44:44.673Z,20.10
2023-04-13T15:47:19.883Z,20.00
2023-04-13T15:49:55.033Z,20.10
2023-04-13T15:52:30.931Z,20.00
2023-04-13T15:55:06.770Z,20.00
2023-04-13T15:57:42.246Z,19.90
2023-04-13T16:00:21.021Z,19.80
2023-04-13T16:02:56.870Z,19.90
2023-04-13T16:05:32.611Z,19.80
2023-04-13T16:08:09.653Z,19.80
2023-04-13T16:10:45.913Z,19.70
2023-04-13T16:13:22.710Z,19.60
2023-04-13T16:16:05.431Z,19.60
2023-04-13T16:18:41.983Z,19.70
2023-04-13T16:21:21.060Z,19.60
2023-04-13T16:23:56.479Z,19.50
2023-04-13T16:26:32.016Z,19.50
2023-04-13T16:29:07.584Z,19.40
2023-04-13T16:31:46.489Z,19.30
2023-04-13T16:34:26.032Z,19.30
2023-04-13T16:37:02.339Z,19.30
2023-04-13T16:39:37.265Z,19.30
2023-04-13T16:42:12.766Z,19.30
2023-04-13T16:44:48.408Z,19.20
2023-04-13T16:47:29.289Z,19.30
2023-04-13T16:50:04.710Z,19.20
2023-04-13T16:52:40.671Z,19.20
2023-04-13T16:55:17.262Z,19.30
2023-04-13T16:57:52.574Z,19.20
2023-04-13T17:00:28.300Z,19.30
2023-04-13T17:03:06.201Z,19.20
2023-04-13T17:05:41.829Z,19.20
2023-04-13T17:08:18.190Z,19.20
2023-04-13T17:10:53.870Z,19.20
2023-04-13T17:13:29.128Z,19.20
2023-04-13T17:16:04.770Z,19.20
2023-04-13T17:18:43.353Z,19.10
2023-04-13T17:21:18.560Z,19.10
2023-04-13T17:23:53.571Z,19.10
2023-04-13T17:26:29.149Z,19.10
2023-04-13T17:29:05.127Z,19.10
2023-04-13T17:31:40.323Z,19.20
2023-04-13T17:34:18.098Z,19.20
2023-04-13T17:36:53.902Z,19.20
2023-04-13T17:39:29.729Z,19.20
2023-04-13T17:42:04.876Z,19.20
2023-04-13T17:44:40.270Z,19.10
2023-04-13T17:47:16.277Z,19.20
2023-04-13T17:49:54.452Z,19.20
2023-04-13T17:52:31.375Z,19.20
2023-04-13T17:55:06.547Z,19.20
2023-04-13T17:57:42.281Z,19.30
2023-04-13T18:00:19.111Z,19.20
2023-04-13T18:02:55.052Z,19.20
2023-04-13T18:05:32.905Z,19.20
2023-04-13T18:08:08.418Z,19.20
2023-04-13T18:10:43.911Z,19.10
2023-04-13T18:13:19.077Z,19.10
2023-04-13T18:15:54.476Z,19.10
2023-04-13T18:18:29.958Z,19.10
2023-04-13T18:21:08.325Z,19.10
2023-04-13T18:23:43.580Z,19.10
2023-04-13T18:26:19.006Z,19.10
2023-04-13T18:28:54.704Z,19.00
2023-04-13T18:31:30.209Z,19.10
2023-04-13T18:34:08.291Z,19.10
2023-04-13T18:36:46.359Z,19.10
2023-04-13T18:39:22.460Z,19.10
2023-04-13T18:41:58.045Z,19.10
2023-04-13T18:44:33.244Z,19.10
2023-04-13T18:47:08.564Z,19.10
2023-04-13T18:49:44.324Z,19.20
2023-04-13T18:52:22.303Z,19.10
2023-04-13T18:54:57.626Z,19.10
2023-04-13T18:57:32.830Z,19.20
2023-04-13T19:00:08.713Z,19.10
2023-04-13T19:02:48.021Z,19.00
2023-04-13T19:05:23.486Z,19.00
2023-04-13T19:08:05.494Z,19.00
2023-04-13T19:10:41.100Z,19.00
2023-04-13T19:13:17.375Z,19.00
2023-04-13T19:15:52.535Z,18.90
2023-04-13T19:18:28.851Z,19.10
2023-04-13T19:21:06.766Z,19.00
2023-04-13T19:23:44.614Z,19.00
2023-04-13T19:26:19.628Z,19.00
2023-04-13T19:28:54.572Z,18.90
2023-04-13T19:31:30.297Z,18.90
2023-04-13T19:34:06.002Z,18.90
2023-04-13T19:36:41.738Z,18.90
2023-04-13T19:39:19.509Z,19.00
2023-04-13T19:41:55.247Z,19.00
2023-04-13T19:44:31.015Z,18.90
2023-04-13T19:47:06.335Z,18.90
2023-04-13T19:49:41.550Z,18.90
2023-04-13T19:52:19.787Z,19.00
2023-04-13T19:54:57.830Z,19.00
2023-04-13T19:57:33.116Z,19.10
2023-04-13T20:00:10.504Z,19.20
2023-04-13T20:02:46.328Z,19.10
2023-04-13T20:05:23.262Z,19.20
2023-04-13T20:07:58.788Z,19.10
2023-04-13T20:10:36.485Z,19.10
2023-04-13T20:13:12.280Z,19.10
2023-04-13T20:15:47.832Z,19.10
2023-04-13T20:18:22.898Z,19.10
2023-04-13T20:20:58.376Z,19.10
2023-04-13T20:23:38.218Z,19.10
2023-04-13T20:26:16.987Z,19.10
2023-04-13T20:28:52.478Z,19.20
2023-04-13T20:31:27.584Z,19.20
2023-04-13T20:34:04.707Z,19.20
2023-04-13T20:36:40.348Z,19.20
2023-04-13T20:39:15.459Z,19.10
2023-04-13T20:41:56.638Z,19.30
2023-04-13T20:44:32.222Z,19.20
2023-04-13T20:47:07.725Z,19.20
2023-04-13T20:49:43.523Z,19.30
2023-04-13T20:52:19.793Z,19.30
2023-04-13T20:54:56.239Z,19.40
2023-04-13T20:57:34.655Z,19.40
2023-04-13T21:00:13.834Z,19.40
2023-04-13T21:02:50.679Z,19.60
2023-04-13T21:05:26.981Z,19.50
2023-04-13T21:08:02.299Z,19.60
2023-04-13T21:10:37.452Z,19.60
2023-04-13T21:13:14.998Z,19.70
2023-04-13T21:15:50.554Z,19.70
2023-04-13T21:18:28.397Z,19.70
2023-04-13T21:21:03.616Z,19.60
2023-04-13T21:23:39.586Z,19.60
2023-04-13T21:26:15.015Z,19.50
2023-04-13T21:28:52.728Z,19.50
2023-04-13T21:31:27.629Z,19.50
2023-04-13T21:34:02.962Z,19.40
2023-04-13T21:39:17.517Z,19.30
2023-04-13T21:41:52.457Z,19.40
2023-04-13T21:44:30.369Z,19.20
2023-04-13T21:47:05.624Z,19.30
2023-04-13T21:49:40.961Z,19.40
2023-04-13T21:52:15.883Z,19.40
2023-04-13T21:54:51.741Z,19.40
2023-04-13T21:57:27.274Z,19.40
2023-04-13T22:00:09.522Z,19.50
2023-04-13T22:02:57.223Z,19.40
2023-04-13T22:05:38.140Z,19.40
2023-04-13T22:08:13.806Z,19.30
2023-04-13T22:10:49.717Z,19.30
2023-04-13T22:13:24.747Z,19.20
2023-04-13T22:16:02.431Z,19.20
2023-04-13T22:18:38.238Z,19.30
2023-04-13T22:21:13.937Z,19.20
2023-04-13T22:23:49.113Z,19.30
2023-04-13T22:26:24.261Z,19.30
2023-04-13T22:29:00.430Z,19.30
2023-04-13T22:31:38.481Z,19.40
2023-04-13T22:34:13.538Z,19.40
2023-04-13T22:36:48.532Z,19.20
2023-04-13T22:39:24.023Z,19.20
2023-04-13T22:41:59.643Z,19.20
2023-04-13T22:44:38.663Z,19.20
2023-04-13T22:47:19.928Z,19.30
2023-04-13T22:49:56.118Z,19.30
2023-04-13T22:52:31.600Z,19.30
2023-04-13T22:55:06.573Z,19.50
2023-04-13T22:57:41.535Z,19.70
2023-04-13T23:00:18.456Z,19.80
2023-04-13T23:02:57.533Z,19.80
2023-04-13T23:05:32.775Z,19.80
2023-04-13T23:08:08.086Z,19.80
2023-04-13T23:10:43.848Z,19.80
2023-04-13T23:13:19.574Z,19.70
2023-04-13T23:15:54.855Z,19.70
2023-04-13T23:18:32.786Z,19.70
2023-04-13T23:21:15.460Z,19.50
2023-04-13T23:23:51.222Z,19.60
2023-04-13T23:26:26.357Z,19.40
2023-04-13T23:29:02.334Z,19.40
2023-04-13T23:31:38.328Z,19.40
2023-04-13T23:34:16.416Z,19.40
2023-04-13T23:36:51.316Z,19.50
2023-04-13T23:39:26.483Z,19.70
2023-04-13T23:42:01.970Z,20.10
2023-04-13T23:44:37.229Z,20.30
2023-04-13T23:47:12.291Z,20.50
2023-04-13T23:49:50.037Z,20.70
2023-04-13T23:52:25.602Z,20.90
2023-04-13T23:55:01.058Z,21.00
2023-04-13T23:57:39.563Z,20.90
